Skip Navigation Links Skip Navigation Links

Current Weather

Yenbo, Saudi Arabia

For information only: do not use for flight planning or navigation.
Latest weather
Observation time Wednesday, October 27, 2021 8:00 AM +03
Local time Wednesday, October 27, 2021 8:54 AM +03
Flight conditions Visual Meteorological Conditions
Winds
Wind direction North-Northeast (30°)
Wind speed 2 mph
Visibility 6.2 mi.
Sky condition
Ceiling unlimited
Sky clear
Temperature 77°F
Dewpoint 63°F
Altimeter 29.85 in.Hg
Derived measurements
Relative humidity 61%
Heat index 77°F
Density altitude 1532 ft.
Remarks
Ceiling and visibility OK.
No significant changes expected in the next two hours.
METAR OEYN 270500Z 03002KT CAVOK 25/17 Q1011 NOSIG

Settings

Location code

InnerDrive.Weather 4.0.6770.0 Release CLR 4.0.30319.42000
Copyright ©2018 Inner Drive Technology. All rights reserved. Portions Copyright ©1986-2018 David Braverman.

Find weather

Site navigation


Skip Navigation Links

Place info

Page info

PayPal - The safer, easier way to pay online!

Return home.

Copyright ©2021 Inner Drive Technology. Purveyors of fine, hand-crafted computer software. Page printed 2021-10-27T05:54:31 UTC.